createdAt,value
2017-11-15T00:00:47.722Z,23.40
2017-11-15T00:01:47.739Z,22.70
2017-11-15T00:02:47.748Z,23.40
2017-11-15T00:03:47.760Z,24.80
2017-11-15T00:04:47.780Z,21.60
2017-11-15T00:05:47.803Z,22.50
2017-11-15T00:06:47.813Z,21.40
2017-11-15T00:07:47.834Z,26.90
2017-11-15T00:08:47.840Z,25.40
2017-11-15T00:09:47.864Z,25.30
2017-11-15T00:10:47.869Z,21.40
2017-11-15T00:11:47.894Z,23.80
2017-11-15T00:12:47.899Z,19.50
2017-11-15T00:13:47.921Z,28.20
2017-11-15T00:14:47.945Z,23.30
2017-11-15T00:15:47.954Z,23.90
2017-11-15T00:16:47.972Z,24.30
2017-11-15T00:17:47.981Z,23.70
2017-11-15T00:18:48.003Z,27.70
2017-11-15T00:19:48.016Z,26.40
2017-11-15T00:20:48.033Z,26.00
2017-11-15T00:21:48.057Z,24.00
2017-11-15T00:22:48.063Z,23.30
2017-11-15T00:23:48.088Z,27.00
2017-11-15T00:24:48.100Z,26.60
2017-11-15T00:25:48.115Z,24.00
2017-11-15T00:26:48.126Z,24.10
2017-11-15T00:27:48.148Z,24.60
2017-11-15T00:28:48.165Z,26.90
2017-11-15T00:29:48.184Z,28.90
2017-11-15T00:30:48.200Z,26.60
2017-11-15T00:31:48.206Z,26.20
2017-11-15T00:32:48.230Z,28.90
2017-11-15T00:33:48.243Z,24.30
2017-11-15T00:34:48.507Z,28.90
2017-11-15T00:35:48.270Z,35.10
2017-11-15T00:36:48.290Z,27.90
2017-11-15T00:37:48.308Z,25.00
2017-11-15T00:38:48.321Z,26.80
2017-11-15T00:39:48.341Z,35.80
2017-11-15T00:40:48.350Z,28.90
2017-11-15T00:41:48.369Z,27.10
2017-11-15T00:42:48.379Z,27.90
2017-11-15T00:43:48.400Z,27.10
2017-11-15T00:44:48.675Z,27.30
2017-11-15T00:45:48.430Z,30.60
2017-11-15T00:46:48.453Z,35.70
2017-11-15T00:47:48.464Z,26.80
2017-11-15T00:48:48.482Z,29.90
2017-11-15T00:49:48.496Z,29.30
2017-11-15T00:50:48.512Z,34.90
2017-11-15T00:51:48.546Z,27.30
2017-11-15T00:52:48.548Z,26.00
2017-11-15T00:53:48.564Z,35.00
2017-11-15T00:54:48.576Z,27.30
2017-11-15T00:55:48.596Z,30.00
2017-11-15T00:56:48.603Z,28.30
2017-11-15T00:57:48.628Z,31.80
2017-11-15T00:58:48.650Z,31.20
2017-11-15T00:59:48.653Z,29.60
2017-11-15T01:00:48.692Z,31.40
2017-11-15T01:01:48.688Z,28.20
2017-11-15T01:02:48.711Z,29.50
2017-11-15T01:03:48.716Z,31.80
2017-11-15T01:04:48.986Z,29.90
2017-11-15T01:05:48.762Z,27.50
2017-11-15T01:06:48.773Z,27.00
2017-11-15T01:07:48.791Z,28.60
2017-11-15T01:08:48.795Z,28.60
2017-11-15T01:09:48.818Z,28.50
2017-11-15T01:10:48.832Z,32.20
2017-11-15T01:11:48.852Z,29.50
2017-11-15T01:12:48.874Z,30.00
2017-11-15T01:13:48.879Z,34.00
2017-11-15T01:14:48.904Z,28.60
2017-11-15T01:15:48.913Z,30.20
2017-11-15T01:16:48.930Z,28.30
2017-11-15T01:17:48.957Z,30.20
2017-11-15T01:18:48.973Z,28.20
2017-11-15T01:19:48.986Z,30.60
2017-11-15T01:20:48.997Z,28.50
2017-11-15T01:21:49.016Z,28.80
2017-11-15T01:22:49.025Z,30.80
2017-11-15T01:23:49.043Z,33.40
2017-11-15T01:24:49.317Z,31.10
2017-11-15T01:25:49.073Z,32.10
2017-11-15T01:26:49.100Z,32.70
2017-11-15T01:27:49.106Z,31.60
2017-11-15T01:28:49.131Z,33.30
2017-11-15T01:29:49.150Z,32.40
2017-11-15T01:30:49.156Z,33.50
2017-11-15T01:31:49.180Z,27.30
2017-11-15T01:32:49.188Z,29.10
2017-11-15T01:33:49.207Z,28.90
2017-11-15T01:34:49.217Z,28.90
2017-11-15T01:35:49.258Z,27.80
2017-11-15T01:36:49.258Z,33.10
2017-11-15T01:37:49.268Z,30.20
2017-11-15T01:38:49.292Z,29.90
2017-11-15T01:39:49.550Z,32.60
2017-11-15T01:40:49.319Z,30.20
2017-11-15T01:41:49.345Z,32.40
2017-11-15T01:42:49.354Z,33.70
2017-11-15T01:43:49.374Z,29.30
2017-11-15T01:44:49.379Z,29.90
2017-11-15T01:45:49.405Z,27.30
2017-11-15T01:46:49.425Z,28.30
2017-11-15T01:47:49.432Z,30.50
2017-11-15T01:48:49.456Z,29.70
2017-11-15T01:49:49.766Z,29.80
2017-11-15T01:50:49.486Z,32.20
2017-11-15T01:51:49.506Z,30.10
2017-11-15T01:52:49.517Z,31.40
2017-11-15T01:53:49.536Z,30.70
2017-11-15T01:54:49.547Z,33.40
2017-11-15T01:55:49.569Z,34.80
2017-11-15T01:56:49.574Z,34.40
2017-11-15T01:57:49.597Z,35.80
2017-11-15T01:58:49.618Z,33.20
2017-11-15T01:59:49.875Z,32.70
2017-11-15T02:00:49.648Z,32.40
2017-11-15T02:01:49.656Z,36.80
2017-11-15T02:02:49.681Z,34.90
2017-11-15T02:03:49.697Z,35.70
2017-11-15T02:04:49.732Z,36.30
2017-11-15T02:05:49.729Z,36.50
2017-11-15T02:06:49.758Z,37.30
2017-11-15T02:07:49.763Z,42.70
2017-11-15T02:08:49.796Z,39.60
2017-11-15T02:09:49.793Z,51.00
2017-11-15T02:10:49.813Z,40.10
2017-11-15T02:11:49.823Z,41.50
2017-11-15T02:12:49.840Z,40.80
2017-11-15T02:13:49.861Z,42.60
2017-11-15T02:14:49.871Z,45.30
2017-11-15T02:15:49.900Z,43.20
2017-11-15T02:16:49.906Z,45.70
2017-11-15T02:17:49.922Z,45.90
2017-11-15T02:18:49.944Z,48.80
2017-11-15T02:19:50.208Z,48.70
2017-11-15T02:20:49.978Z,53.20
2017-11-15T02:21:49.987Z,53.50
2017-11-15T02:22:50.010Z,59.20
2017-11-15T02:23:50.027Z,55.80
2017-11-15T02:24:50.038Z,54.70
2017-11-15T02:25:50.059Z,58.00
2017-11-15T02:26:50.068Z,49.60
2017-11-15T02:27:50.090Z,60.80
2017-11-15T02:28:50.097Z,56.00
2017-11-15T02:29:50.120Z,58.80
2017-11-15T02:30:50.138Z,55.50
2017-11-15T02:31:50.149Z,58.20
2017-11-15T02:32:50.169Z,59.40
2017-11-15T02:33:50.182Z,65.10
2017-11-15T02:34:50.202Z,60.10
2017-11-15T02:35:50.210Z,63.10
2017-11-15T02:36:50.232Z,71.00
2017-11-15T02:37:50.253Z,67.30
2017-11-15T02:38:50.260Z,66.90
2017-11-15T02:39:50.583Z,67.80
2017-11-15T02:40:50.291Z,65.20
2017-11-15T02:41:50.316Z,68.80
2017-11-15T02:42:50.336Z,60.20
2017-11-15T02:43:50.342Z,65.50
2017-11-15T02:44:50.373Z,71.40
2017-11-15T02:45:50.376Z,66.80
2017-11-15T02:46:50.396Z,67.60
2017-11-15T02:47:50.417Z,65.90
2017-11-15T02:48:50.431Z,65.30
2017-11-15T02:49:50.447Z,63.90
2017-11-15T02:50:50.457Z,58.60
2017-11-15T02:51:50.478Z,66.90
2017-11-15T02:52:50.497Z,65.80
2017-11-15T02:53:50.506Z,65.50
2017-11-15T02:54:50.781Z,65.90
2017-11-15T02:55:50.534Z,60.30
2017-11-15T02:56:50.556Z,62.50
2017-11-15T02:57:50.581Z,58.70
2017-11-15T02:58:50.588Z,75.00
2017-11-15T02:59:50.851Z,62.10
2017-11-15T03:00:50.620Z,67.60
2017-11-15T03:01:50.640Z,72.30
2017-11-15T03:02:50.652Z,62.20
2017-11-15T03:03:50.673Z,79.40
2017-11-15T03:04:50.678Z,62.10
2017-11-15T03:05:50.703Z,73.00
2017-11-15T03:06:50.721Z,69.90
2017-11-15T03:07:50.730Z,67.90
2017-11-15T03:08:50.755Z,66.30
2017-11-15T03:09:50.764Z,57.10
2017-11-15T03:10:50.784Z,70.60
2017-11-15T03:11:50.791Z,63.30
2017-11-15T03:12:50.815Z,61.90
2017-11-15T03:13:50.839Z,59.10
2017-11-15T03:14:50.847Z,61.40
2017-11-15T03:15:50.876Z,59.20
2017-11-15T03:16:50.872Z,59.80
2017-11-15T03:17:50.897Z,55.90
2017-11-15T03:18:50.915Z,54.30
2017-11-15T03:19:50.923Z,57.20
2017-11-15T03:20:50.948Z,61.80
2017-11-15T03:21:50.955Z,52.30
2017-11-15T03:22:50.976Z,60.20
2017-11-15T03:23:50.988Z,58.20
2017-11-15T03:24:51.008Z,60.00
2017-11-15T03:25:51.027Z,57.90
2017-11-15T03:26:51.037Z,56.50
2017-11-15T03:27:51.057Z,60.00
2017-11-15T03:28:51.068Z,56.40
2017-11-15T03:29:51.339Z,49.90
2017-11-15T03:30:51.113Z,53.80
2017-11-15T03:31:51.119Z,56.50
2017-11-15T03:32:51.142Z,51.70
2017-11-15T03:33:51.165Z,52.70
2017-11-15T03:34:51.173Z,49.40
2017-11-15T03:35:51.191Z,55.10
2017-11-15T03:36:51.211Z,53.90
2017-11-15T03:37:51.221Z,53.10
2017-11-15T03:38:51.231Z,55.10
2017-11-15T03:39:51.254Z,53.40
2017-11-15T03:40:51.262Z,52.20
2017-11-15T03:41:51.283Z,52.10
2017-11-15T03:42:51.307Z,52.30
2017-11-15T03:43:51.312Z,54.70
2017-11-15T03:44:51.635Z,48.50
2017-11-15T03:45:51.347Z,51.60
2017-11-15T03:46:51.365Z,51.20
2017-11-15T03:47:51.386Z,50.00
2017-11-15T03:48:51.395Z,52.50
2017-11-15T03:49:51.419Z,52.50
2017-11-15T03:50:51.433Z,47.10
2017-11-15T03:51:51.449Z,59.90
2017-11-15T03:52:51.456Z,49.40
2017-11-15T03:53:51.475Z,49.80
2017-11-15T03:54:51.502Z,55.40
2017-11-15T03:55:51.505Z,48.50
2017-11-15T03:56:51.531Z,49.50
2017-11-15T03:57:51.537Z,49.00
2017-11-15T03:58:51.560Z,46.20
2017-11-15T03:59:51.833Z,60.00
2017-11-15T04:00:51.592Z,52.60
2017-11-15T04:01:51.611Z,49.30
2017-11-15T04:02:51.621Z,47.30
2017-11-15T04:03:51.639Z,45.30
2017-11-15T04:04:51.677Z,45.20
2017-11-15T04:05:51.673Z,49.00
2017-11-15T04:06:51.692Z,48.30
2017-11-15T04:07:51.707Z,43.40
2017-11-15T04:08:51.725Z,51.40
2017-11-15T04:09:51.734Z,49.00
2017-11-15T04:10:51.756Z,44.80
2017-11-15T04:11:51.777Z,46.90
2017-11-15T04:12:51.786Z,42.80
2017-11-15T04:13:51.804Z,42.80
2017-11-15T04:14:51.814Z,43.50
2017-11-15T04:15:51.835Z,42.60
2017-11-15T04:16:51.849Z,43.90
2017-11-15T04:17:51.876Z,47.30
2017-11-15T04:18:51.884Z,42.30
2017-11-15T04:19:51.899Z,44.80
2017-11-15T04:20:51.920Z,39.10
2017-11-15T04:21:51.926Z,39.00
2017-11-15T04:22:51.967Z,38.40
2017-11-15T04:23:51.971Z,45.80
2017-11-15T04:24:51.976Z,41.60
2017-11-15T04:25:52.001Z,42.50
2017-11-15T04:26:52.011Z,45.40
2017-11-15T04:27:52.030Z,43.70
2017-11-15T04:28:52.036Z,48.30
2017-11-15T04:29:52.063Z,42.00
2017-11-15T04:30:52.068Z,42.00
2017-11-15T04:31:52.092Z,44.80
2017-11-15T04:32:52.110Z,46.20
2017-11-15T04:33:52.118Z,42.40
2017-11-15T04:34:52.391Z,49.60
2017-11-15T04:35:52.161Z,45.90
2017-11-15T04:36:52.175Z,39.90
2017-11-15T04:37:52.192Z,45.50
2017-11-15T04:38:52.203Z,45.00
2017-11-15T04:39:52.226Z,40.10
2017-11-15T04:40:52.247Z,43.40
2017-11-15T04:41:52.257Z,44.00
2017-11-15T04:42:52.261Z,39.30
2017-11-15T04:43:52.283Z,48.70
2017-11-15T04:44:52.558Z,41.60
2017-11-15T04:45:52.315Z,42.30
2017-11-15T04:46:52.335Z,38.70
2017-11-15T04:47:52.343Z,45.00
2017-11-15T04:48:52.368Z,45.00
2017-11-15T04:49:52.385Z,39.40
2017-11-15T04:50:52.401Z,38.90
2017-11-15T04:51:52.417Z,37.90
2017-11-15T04:52:52.429Z,48.70
2017-11-15T04:53:52.447Z,44.90
2017-11-15T04:54:52.458Z,38.50
2017-11-15T04:55:52.481Z,45.80
2017-11-15T04:56:52.502Z,45.30
2017-11-15T04:57:52.510Z,44.60
2017-11-15T04:58:52.529Z,44.20
2017-11-15T04:59:52.841Z,48.40
2017-11-15T05:00:52.558Z,48.70
2017-11-15T05:01:52.580Z,48.00
2017-11-15T05:02:52.592Z,48.20
2017-11-15T05:03:52.618Z,46.70
2017-11-15T05:04:52.626Z,43.90
2017-11-15T05:05:52.646Z,45.00
2017-11-15T05:06:52.650Z,43.20
2017-11-15T05:07:52.672Z,40.60
2017-11-15T05:08:52.700Z,47.00
2017-11-15T05:09:52.952Z,43.50
2017-11-15T05:10:52.727Z,40.90
2017-11-15T05:11:52.731Z,44.60
2017-11-15T05:12:52.756Z,39.90
2017-11-15T05:13:52.767Z,43.00
2017-11-15T05:14:52.783Z,46.30
2017-11-15T05:15:52.809Z,41.70
2017-11-15T05:16:52.818Z,40.10
2017-11-15T05:17:52.838Z,43.60
2017-11-15T05:18:52.847Z,45.20
2017-11-15T05:19:53.118Z,46.00
2017-11-15T05:20:52.890Z,43.80
2017-11-15T05:21:52.900Z,44.80
2017-11-15T05:22:52.917Z,40.70
2017-11-15T05:23:52.926Z,42.60
2017-11-15T05:24:52.948Z,40.90
2017-11-15T05:25:52.968Z,42.30
2017-11-15T05:26:52.980Z,46.10
2017-11-15T05:27:53.000Z,45.50
2017-11-15T05:28:53.012Z,46.50
2017-11-15T05:29:53.029Z,45.30
2017-11-15T05:30:53.041Z,43.00
2017-11-15T05:31:53.062Z,46.20
2017-11-15T05:32:53.085Z,43.90
2017-11-15T05:33:53.102Z,47.70
2017-11-15T05:34:53.416Z,48.10
2017-11-15T05:35:53.130Z,45.50
2017-11-15T05:36:53.142Z,44.50
2017-11-15T05:37:53.156Z,48.60
2017-11-15T05:38:53.173Z,47.90
2017-11-15T05:39:53.193Z,43.50
2017-11-15T05:40:53.203Z,46.10
2017-11-15T05:41:53.227Z,42.20
2017-11-15T05:42:53.235Z,42.80
2017-11-15T05:43:53.265Z,44.50
2017-11-15T05:44:53.529Z,46.30
2017-11-15T05:45:53.283Z,45.60
2017-11-15T05:46:53.309Z,44.30
2017-11-15T05:47:53.317Z,43.50
2017-11-15T05:48:53.339Z,40.40
2017-11-15T05:49:53.356Z,44.40
2017-11-15T05:50:53.368Z,49.70
2017-11-15T05:51:53.387Z,44.30
2017-11-15T05:52:53.399Z,46.50
2017-11-15T05:53:53.421Z,49.10
2017-11-15T05:54:53.431Z,47.90
2017-11-15T05:55:53.452Z,46.00
2017-11-15T05:56:53.475Z,42.10
2017-11-15T05:57:53.482Z,43.70
2017-11-15T05:58:53.503Z,42.60
2017-11-15T05:59:53.512Z,42.20
2017-11-15T06:00:53.530Z,39.30
2017-11-15T06:01:53.553Z,40.10
2017-11-15T06:02:53.560Z,40.20
2017-11-15T06:03:53.581Z,43.20
2017-11-15T06:04:53.594Z,40.40
2017-11-15T06:05:53.615Z,46.00
2017-11-15T06:06:53.636Z,43.30
2017-11-15T06:07:53.648Z,43.70
2017-11-15T06:08:53.668Z,42.50
2017-11-15T06:09:53.973Z,40.60
2017-11-15T06:10:53.769Z,41.80
2017-11-15T06:11:53.815Z,40.80
2017-11-15T06:12:53.757Z,47.90
2017-11-15T06:13:53.810Z,39.90
2017-11-15T06:14:53.816Z,45.10
2017-11-15T06:15:53.830Z,39.30
2017-11-15T06:16:53.796Z,43.40
2017-11-15T06:17:53.882Z,41.80
2017-11-15T06:18:53.918Z,40.90
2017-11-15T06:19:54.088Z,43.50
2017-11-15T06:20:53.966Z,40.70
2017-11-15T06:21:53.896Z,38.30
2017-11-15T06:22:53.889Z,42.30
2017-11-15T06:23:53.945Z,44.30
2017-11-15T06:24:53.922Z,45.20
2017-11-15T06:25:53.964Z,46.30
2017-11-15T06:26:53.953Z,42.10
2017-11-15T06:27:54.008Z,47.40
2017-11-15T06:28:54.026Z,43.00
2017-11-15T06:29:54.022Z,43.50
2017-11-15T06:30:54.022Z,47.90
2017-11-15T06:31:54.088Z,42.40
2017-11-15T06:32:54.133Z,40.30
2017-11-15T06:33:54.183Z,42.90
2017-11-15T06:34:54.083Z,41.10
2017-11-15T06:35:54.118Z,47.60
2017-11-15T06:36:54.190Z,42.30
2017-11-15T06:37:54.274Z,41.10
2017-11-15T06:38:54.147Z,45.70
2017-11-15T06:39:54.414Z,47.50
2017-11-15T06:40:54.177Z,48.90
2017-11-15T06:41:54.207Z,47.30
2017-11-15T06:42:54.219Z,45.90
2017-11-15T06:43:54.228Z,51.70
2017-11-15T06:44:54.249Z,44.90
2017-11-15T06:45:54.257Z,52.00
2017-11-15T06:46:54.277Z,48.90
2017-11-15T06:47:54.298Z,45.50
2017-11-15T06:48:54.310Z,48.00
2017-11-15T06:49:54.330Z,44.40
2017-11-15T06:50:54.339Z,50.50
2017-11-15T06:51:54.386Z,48.70
2017-11-15T06:52:54.380Z,49.50
2017-11-15T06:53:54.392Z,52.80
2017-11-15T06:54:54.409Z,54.40
2017-11-15T06:55:54.422Z,51.70
2017-11-15T06:56:54.453Z,55.60
2017-11-15T06:57:54.461Z,52.20
2017-11-15T06:58:54.472Z,55.30
2017-11-15T06:59:54.793Z,51.50
2017-11-15T07:00:54.502Z,51.30
2017-11-15T07:01:54.526Z,55.40
2017-11-15T07:02:54.542Z,57.70
2017-11-15T07:03:54.554Z,63.50
2017-11-15T07:04:54.824Z,54.40
2017-11-15T07:05:54.584Z,59.10
2017-11-15T07:06:54.606Z,54.20
2017-11-15T07:07:54.627Z,51.00
2017-11-15T07:08:54.636Z,53.90
2017-11-15T07:09:54.659Z,53.80
2017-11-15T07:10:54.667Z,51.40
2017-11-15T07:11:54.689Z,58.70
2017-11-15T07:12:54.723Z,53.70
2017-11-15T07:13:54.721Z,52.10
2017-11-15T07:14:54.737Z,52.30
2017-11-15T07:15:54.747Z,52.40
2017-11-15T07:16:54.769Z,55.90
2017-11-15T07:17:54.789Z,53.10
2017-11-15T07:18:54.799Z,52.70
2017-11-15T07:19:55.069Z,52.40
2017-11-15T07:20:54.832Z,49.50
2017-11-15T07:21:54.853Z,48.50
2017-11-15T07:22:54.877Z,49.00
2017-11-15T07:23:54.884Z,47.90
2017-11-15T07:24:54.909Z,50.80
2017-11-15T07:25:54.917Z,49.40
2017-11-15T07:26:54.932Z,44.20
2017-11-15T07:27:54.954Z,48.70
2017-11-15T07:28:54.962Z,46.60
2017-11-15T07:29:54.984Z,54.70
2017-11-15T07:30:55.010Z,48.20
2017-11-15T07:31:55.019Z,48.50
2017-11-15T07:32:55.038Z,46.90
2017-11-15T07:33:55.046Z,53.10
2017-11-15T07:34:55.066Z,51.10
2017-11-15T07:35:55.079Z,51.30
2017-11-15T07:36:55.105Z,50.80
2017-11-15T07:37:55.121Z,48.90
2017-11-15T07:38:55.129Z,49.10
2017-11-15T07:39:55.148Z,49.60
2017-11-15T07:40:55.169Z,44.00
2017-11-15T07:41:55.179Z,50.20
2017-11-15T07:42:55.200Z,47.30
2017-11-15T07:43:55.209Z,50.90
2017-11-15T07:44:55.231Z,46.30
2017-11-15T07:45:55.252Z,45.40
2017-11-15T07:46:55.270Z,44.00
2017-11-15T07:47:55.287Z,44.70
2017-11-15T07:48:55.306Z,41.10
2017-11-15T07:49:55.315Z,44.40
2017-11-15T07:50:55.336Z,45.50
2017-11-15T07:51:55.347Z,42.40
2017-11-15T07:52:55.363Z,41.90
2017-11-15T07:53:55.386Z,43.50
2017-11-15T07:54:55.394Z,44.50
2017-11-15T07:55:55.414Z,41.50
2017-11-15T07:56:55.436Z,42.50
2017-11-15T07:57:55.445Z,46.60
2017-11-15T07:58:55.476Z,50.00
2017-11-15T07:59:55.488Z,48.20
2017-11-15T08:00:55.500Z,48.30
2017-11-15T08:01:55.523Z,46.50
2017-11-15T08:02:55.543Z,54.10
2017-11-15T08:03:55.552Z,56.00
2017-11-15T08:04:55.569Z,48.90
2017-11-15T08:05:55.594Z,60.60
2017-11-15T08:06:55.599Z,54.50
2017-11-15T08:07:55.623Z,48.40
2017-11-15T08:08:55.647Z,50.20
2017-11-15T08:09:55.655Z,48.80
2017-11-15T08:10:55.677Z,55.70
2017-11-15T08:11:55.703Z,48.40
2017-11-15T08:12:55.705Z,46.90
2017-11-15T08:13:55.727Z,45.20
2017-11-15T08:14:55.748Z,43.30
2017-11-15T08:15:55.772Z,47.40
2017-11-15T08:16:55.777Z,51.80
2017-11-15T08:17:55.801Z,50.20
2017-11-15T08:18:55.808Z,48.80
2017-11-15T08:19:56.082Z,48.70
2017-11-15T08:20:55.852Z,47.30
2017-11-15T08:21:55.861Z,51.50
2017-11-15T08:22:55.884Z,50.30
2017-11-15T08:23:55.901Z,49.70
2017-11-15T08:24:55.914Z,48.50
2017-11-15T08:25:55.935Z,61.10
2017-11-15T08:26:55.956Z,48.60
2017-11-15T08:27:55.968Z,51.90
2017-11-15T08:28:55.981Z,54.30
2017-11-15T08:29:56.008Z,53.70
2017-11-15T08:30:56.017Z,49.30
2017-11-15T08:31:56.034Z,44.20
2017-11-15T08:32:56.059Z,47.90
2017-11-15T08:33:56.065Z,53.30
2017-11-15T08:34:56.085Z,47.70
2017-11-15T08:35:56.111Z,46.60
2017-11-15T08:36:56.121Z,41.00
2017-11-15T08:37:56.141Z,42.10
2017-11-15T08:38:56.159Z,43.60
2017-11-15T08:39:56.422Z,39.30
2017-11-15T08:40:56.192Z,39.60
2017-11-15T08:41:56.215Z,38.10
2017-11-15T08:42:56.220Z,42.40
2017-11-15T08:43:56.241Z,48.10
2017-11-15T08:44:56.269Z,54.60
2017-11-15T08:45:56.277Z,58.40
2017-11-15T08:46:56.309Z,56.30
2017-11-15T08:47:56.314Z,69.70
2017-11-15T08:48:56.322Z,54.40
2017-11-15T08:49:56.352Z,42.30
2017-11-15T08:50:56.368Z,40.40
2017-11-15T08:51:56.376Z,38.80
2017-11-15T08:52:56.395Z,37.50
2017-11-15T08:53:56.420Z,39.60
2017-11-15T08:54:56.431Z,36.70
2017-11-15T08:55:56.468Z,33.30
2017-11-15T08:56:56.473Z,37.20
2017-11-15T08:57:56.483Z,35.40
2017-11-15T08:58:56.499Z,34.80
2017-11-15T08:59:56.533Z,34.60
2017-11-15T09:00:56.545Z,33.00
2017-11-15T09:01:56.556Z,33.20
2017-11-15T09:02:56.576Z,30.50
2017-11-15T09:03:56.594Z,35.50
2017-11-15T09:04:56.604Z,36.20
2017-11-15T09:05:56.627Z,36.90
2017-11-15T09:06:56.648Z,34.40
2017-11-15T09:07:56.659Z,31.80
2017-11-15T09:08:56.676Z,33.00
2017-11-15T09:09:56.697Z,38.10
2017-11-15T09:10:56.710Z,31.40
2017-11-15T09:11:56.729Z,30.80
2017-11-15T09:12:56.756Z,31.00
2017-11-15T09:13:56.787Z,30.10
2017-11-15T09:14:56.783Z,30.30
2017-11-15T09:15:56.803Z,29.60
2017-11-15T09:16:56.821Z,29.30
2017-11-15T09:17:56.844Z,33.80
2017-11-15T09:18:56.855Z,30.00
2017-11-15T09:19:56.877Z,28.70
2017-11-15T09:20:56.893Z,27.70
2017-11-15T09:21:56.920Z,27.30
2017-11-15T09:22:56.926Z,27.30
2017-11-15T09:23:56.952Z,30.90
2017-11-15T09:24:56.969Z,28.00
2017-11-15T09:25:56.979Z,30.30
2017-11-15T09:26:57.010Z,28.80
2017-11-15T09:27:57.023Z,34.70
2017-11-15T09:28:57.041Z,31.60
2017-11-15T09:29:57.052Z,37.70
2017-11-15T09:30:57.072Z,34.50
2017-11-15T09:31:57.100Z,33.10
2017-11-15T09:32:57.113Z,37.90
2017-11-15T09:33:57.125Z,30.60
2017-11-15T09:34:57.144Z,32.90
2017-11-15T09:35:57.169Z,34.20
2017-11-15T09:36:57.190Z,29.80
2017-11-15T09:37:57.201Z,31.80
2017-11-15T09:38:57.221Z,38.90
2017-11-15T09:39:57.252Z,34.40
2017-11-15T09:40:57.260Z,32.60
2017-11-15T09:41:57.270Z,33.70
2017-11-15T09:42:57.294Z,35.50
2017-11-15T09:43:57.312Z,33.50
2017-11-15T09:44:57.334Z,35.40
2017-11-15T09:45:57.355Z,38.00
2017-11-15T09:46:57.367Z,33.30
2017-11-15T09:47:57.385Z,40.90
2017-11-15T09:48:57.409Z,38.50
2017-11-15T09:49:57.420Z,33.10
2017-11-15T09:50:57.440Z,36.10
2017-11-15T09:51:57.462Z,36.60
2017-11-15T09:52:57.492Z,31.10
2017-11-15T09:53:57.488Z,37.10
2017-11-15T09:54:57.510Z,32.90
2017-11-15T09:55:57.533Z,30.90
2017-11-15T09:56:57.554Z,36.40
2017-11-15T09:57:57.562Z,36.70
2017-11-15T09:58:57.584Z,59.40
2017-11-15T09:59:57.645Z,89.00
2017-11-15T10:00:57.627Z,38.60
2017-11-15T10:01:57.635Z,34.60
2017-11-15T10:02:57.655Z,36.10
2017-11-15T10:03:57.681Z,32.90
2017-11-15T10:04:57.700Z,32.30
2017-11-15T10:05:57.707Z,34.00
2017-11-15T10:06:57.746Z,32.00
2017-11-15T10:07:57.749Z,33.60
2017-11-15T10:08:57.799Z,39.30
2017-11-15T10:09:57.781Z,33.90
2017-11-15T10:10:57.803Z,34.00
2017-11-15T10:11:57.830Z,32.90
2017-11-15T10:12:57.838Z,60.20
2017-11-15T10:13:57.855Z,38.30
2017-11-15T10:14:57.878Z,38.60
2017-11-15T10:15:57.896Z,28.00
2017-11-15T10:16:57.939Z,33.40
2017-11-15T10:17:57.930Z,36.60
2017-11-15T10:18:57.948Z,28.40
2017-11-15T10:19:57.973Z,30.50
2017-11-15T10:20:57.994Z,29.80
2017-11-15T10:21:58.004Z,28.20
2017-11-15T10:22:58.025Z,29.70
2017-11-15T10:23:58.046Z,29.80
2017-11-15T10:24:58.064Z,32.00
2017-11-15T10:25:58.081Z,30.90
2017-11-15T10:26:58.094Z,25.30
2017-11-15T10:27:58.119Z,29.80
2017-11-15T10:28:58.140Z,27.20
2017-11-15T10:29:58.160Z,31.00
2017-11-15T10:30:58.167Z,30.30
2017-11-15T10:31:58.188Z,28.80
2017-11-15T10:32:58.214Z,31.90
2017-11-15T10:33:58.235Z,31.60
2017-11-15T10:34:58.247Z,32.10
2017-11-15T10:35:58.265Z,29.10
2017-11-15T10:36:58.283Z,29.90
2017-11-15T10:37:58.309Z,37.30
2017-11-15T10:38:58.330Z,27.70
2017-11-15T10:39:58.335Z,28.80
2017-11-15T10:40:58.360Z,26.10
2017-11-15T10:41:58.382Z,27.20
2017-11-15T10:42:58.401Z,28.80
2017-11-15T10:43:58.420Z,29.90
2017-11-15T10:44:58.431Z,42.90
2017-11-15T10:45:58.455Z,54.70
2017-11-15T10:46:58.477Z,36.10
2017-11-15T10:47:58.495Z,39.50
2017-11-15T10:48:58.506Z,36.40
2017-11-15T10:49:58.529Z,32.50
2017-11-15T10:50:58.549Z,31.20
2017-11-15T10:51:58.568Z,27.10
2017-11-15T10:52:58.591Z,31.00
2017-11-15T10:53:58.599Z,27.20
2017-11-15T10:54:58.619Z,28.00
2017-11-15T10:55:58.639Z,31.30
2017-11-15T10:56:58.664Z,26.30
2017-11-15T10:57:58.674Z,28.30
2017-11-15T10:58:58.690Z,29.70
2017-11-15T10:59:58.717Z,69.10
2017-11-15T11:00:58.733Z,47.70
2017-11-15T11:01:58.759Z,40.50
2017-11-15T11:02:58.768Z,38.50
2017-11-15T11:03:58.787Z,43.70
2017-11-15T11:04:58.807Z,38.30
2017-11-15T11:05:58.833Z,46.70
2017-11-15T11:06:58.837Z,32.70
2017-11-15T11:07:58.859Z,31.70
2017-11-15T11:08:58.883Z,29.30
2017-11-15T11:09:58.904Z,30.30
2017-11-15T11:10:58.918Z,26.50
2017-11-15T11:11:58.935Z,30.60
2017-11-15T11:12:58.953Z,27.00
2017-11-15T11:13:58.974Z,26.20
2017-11-15T11:14:58.990Z,33.60
2017-11-15T11:15:59.004Z,31.40
2017-11-15T11:16:59.029Z,22.90
2017-11-15T11:17:59.050Z,29.50
2017-11-15T11:18:59.074Z,31.60
2017-11-15T11:19:59.080Z,28.50
2017-11-15T11:20:59.104Z,27.20
2017-11-15T11:21:59.120Z,25.40
2017-11-15T11:22:59.145Z,26.00
2017-11-15T11:23:59.157Z,26.00
2017-11-15T11:24:59.172Z,23.40
2017-11-15T11:25:59.199Z,27.40
2017-11-15T11:26:59.216Z,21.60
2017-11-15T11:27:59.236Z,23.20
2017-11-15T11:28:59.245Z,24.80
2017-11-15T11:29:59.266Z,27.10
2017-11-15T11:30:59.292Z,26.00
2017-11-15T11:31:59.312Z,21.40
2017-11-15T11:32:59.331Z,21.30
2017-11-15T11:33:59.340Z,24.50
2017-11-15T11:34:59.364Z,25.40
2017-11-15T11:35:59.385Z,23.70
2017-11-15T11:36:59.408Z,23.50
2017-11-15T11:37:59.425Z,21.20
2017-11-15T11:38:59.435Z,25.80
2017-11-15T11:39:59.456Z,21.10
2017-11-15T11:40:59.477Z,23.40
2017-11-15T11:41:59.501Z,21.90
2017-11-15T11:42:59.511Z,22.10
2017-11-15T11:43:59.541Z,25.90
2017-11-15T11:44:59.554Z,23.30
2017-11-15T11:45:59.572Z,24.50
2017-11-15T11:46:59.586Z,21.80
2017-11-15T11:47:59.604Z,25.20
2017-11-15T11:48:59.623Z,22.10
2017-11-15T11:49:59.649Z,23.90
2017-11-15T11:50:59.670Z,22.50
2017-11-15T11:51:59.675Z,20.80
2017-11-15T11:52:59.699Z,22.90
2017-11-15T11:53:59.721Z,23.50
2017-11-15T11:54:59.755Z,20.20
2017-11-15T11:55:59.764Z,21.80
2017-11-15T11:56:59.773Z,19.60
2017-11-15T11:57:59.794Z,20.60
2017-11-15T11:58:59.811Z,23.70
2017-11-15T11:59:59.841Z,21.90
2017-11-15T12:00:59.845Z,24.30
2017-11-15T12:01:59.867Z,23.70
2017-11-15T12:02:59.886Z,23.40
2017-11-15T12:03:59.910Z,21.70
2017-11-15T12:04:59.926Z,25.60
2017-11-15T12:05:59.937Z,21.70
2017-11-15T12:06:59.958Z,28.00
2017-11-15T12:07:59.984Z,23.60
2017-11-15T12:08:59.993Z,24.00
2017-11-15T12:10:00.012Z,22.50
2017-11-15T12:11:00.032Z,23.70
2017-11-15T12:12:00.052Z,21.70
2017-11-15T12:13:00.073Z,20.00
2017-11-15T12:14:00.084Z,21.90
2017-11-15T12:15:00.104Z,20.30
2017-11-15T12:16:00.126Z,22.30
2017-11-15T12:17:00.150Z,22.60
2017-11-15T12:18:00.171Z,22.30
2017-11-15T12:19:00.181Z,20.60
2017-11-15T12:20:00.450Z,20.20
2017-11-15T12:21:00.223Z,21.90
2017-11-15T12:22:00.241Z,24.70
2017-11-15T12:23:00.255Z,50.20
2017-11-15T12:24:00.272Z,117.90
2017-11-15T12:25:00.295Z,59.10
2017-11-15T12:26:00.319Z,26.30
2017-11-15T12:27:00.327Z,22.30
2017-11-15T12:28:00.355Z,23.00
2017-11-15T12:29:00.365Z,23.40
2017-11-15T12:30:00.389Z,26.10
2017-11-15T12:31:00.411Z,26.20
2017-11-15T12:32:00.417Z,19.90
2017-11-15T12:33:00.439Z,33.80
2017-11-15T12:34:00.461Z,29.10
2017-11-15T12:35:00.490Z,22.40
2017-11-15T12:36:00.495Z,19.90
2017-11-15T12:37:00.512Z,22.30
2017-11-15T12:38:00.533Z,21.10
2017-11-15T12:39:00.556Z,19.20
2017-11-15T12:40:00.576Z,19.60
2017-11-15T12:41:00.589Z,19.30
2017-11-15T12:42:00.607Z,22.10
2017-11-15T12:43:00.630Z,21.60
2017-11-15T12:44:00.650Z,19.20
2017-11-15T12:45:00.675Z,21.00
2017-11-15T12:46:00.680Z,20.90
2017-11-15T12:47:00.702Z,19.00
2017-11-15T12:48:00.726Z,21.60
2017-11-15T12:49:00.753Z,19.60
2017-11-15T12:50:00.768Z,22.40
2017-11-15T12:51:00.777Z,22.50
2017-11-15T12:52:00.799Z,20.20
2017-11-15T12:53:00.820Z,19.30